createdAt,value
2022-12-27T00:00:07.280Z,23.1
2022-12-27T00:01:09.576Z,23.2
2022-12-27T00:02:12.235Z,23.1
2022-12-27T00:03:14.971Z,23.2
2022-12-27T00:04:17.878Z,23
2022-12-27T00:05:20.399Z,23.1
2022-12-27T00:06:22.688Z,23.1
2022-12-27T00:07:25.208Z,23.2
2022-12-27T00:08:27.419Z,23
2022-12-27T00:09:29.671Z,23.2
2022-12-27T00:10:31.896Z,23.2
2022-12-27T00:11:34.430Z,23.2
2022-12-27T00:12:37.077Z,23.3
2022-12-27T00:13:39.592Z,23.1
2022-12-27T00:14:42.211Z,23.1
2022-12-27T00:15:44.742Z,23.3
2022-12-27T00:16:47.033Z,23.5
2022-12-27T00:17:50.003Z,23.3
2022-12-27T00:18:52.265Z,23.3
2022-12-27T00:19:54.773Z,23.2
2022-12-27T00:20:57.008Z,23.3
2022-12-27T00:21:59.244Z,23.4
2022-12-27T00:23:01.456Z,23.3
2022-12-27T00:24:03.993Z,23.3
2022-12-27T00:25:06.571Z,23.3
2022-12-27T00:26:09.114Z,23.4
2022-12-27T00:27:11.625Z,23.4
2022-12-27T00:28:14.240Z,23.3
2022-12-27T00:29:16.467Z,23.1
2022-12-27T00:30:18.434Z,23.4
2022-12-27T00:31:21.031Z,23.4
2022-12-27T00:32:23.888Z,23.4
2022-12-27T00:33:26.108Z,23.2
2022-12-27T00:34:28.604Z,23.4
2022-12-27T00:35:31.162Z,23.3
2022-12-27T00:36:33.687Z,23.2
2022-12-27T00:37:36.279Z,23.4
2022-12-27T00:38:38.523Z,23.3
2022-12-27T00:39:41.084Z,23.3
2022-12-27T00:40:43.321Z,23.4
2022-12-27T00:41:45.847Z,23.5
2022-12-27T00:42:48.378Z,23.4
2022-12-27T00:43:51.021Z,23.5
2022-12-27T00:44:53.561Z,23.4
2022-12-27T00:45:55.866Z,23.5
2022-12-27T00:46:58.745Z,23.4
2022-12-27T00:48:00.981Z,23.5
2022-12-27T00:49:03.509Z,23.6
2022-12-27T00:50:06.033Z,23.4
2022-12-27T00:51:08.274Z,23.4
2022-12-27T00:52:10.791Z,23.5
2022-12-27T00:53:13.339Z,23.3
2022-12-27T00:54:15.601Z,23.5
2022-12-27T00:55:17.798Z,23.6
2022-12-27T00:56:20.320Z,23.3
2022-12-27T00:57:22.577Z,23.5
2022-12-27T00:58:25.110Z,23.7
2022-12-27T00:59:27.811Z,23.5
2022-12-27T01:00:30.040Z,23.4
2022-12-27T01:01:32.362Z,23.6
2022-12-27T01:02:35.614Z,23.5
2022-12-27T01:03:38.164Z,23.5
2022-12-27T01:04:40.955Z,23.4
2022-12-27T01:05:43.207Z,23.4
2022-12-27T01:06:45.740Z,23.6
2022-12-27T01:07:47.964Z,23.6
2022-12-27T01:08:50.460Z,23.6
2022-12-27T01:09:52.976Z,23.6
2022-12-27T01:10:55.510Z,23.6
2022-12-27T01:11:58.010Z,23.5
2022-12-27T01:13:00.234Z,23.6
2022-12-27T01:14:02.190Z,23.5
2022-12-27T01:15:04.958Z,23.5
2022-12-27T01:16:07.563Z,23.6
2022-12-27T01:17:10.267Z,23.7
2022-12-27T01:18:12.768Z,23.7
2022-12-27T01:19:15.006Z,23.7
2022-12-27T01:20:17.600Z,23.7
2022-12-27T01:21:20.147Z,23.6
2022-12-27T01:22:22.713Z,23.4
2022-12-27T01:23:25.265Z,23.7
2022-12-27T01:24:27.219Z,23.5
2022-12-27T01:25:29.171Z,23.5
2022-12-27T01:26:31.715Z,23.7
2022-12-27T01:27:34.278Z,23.6
2022-12-27T01:28:36.261Z,23.7
2022-12-27T01:29:38.508Z,23.5
2022-12-27T01:30:41.156Z,23.7
2022-12-27T01:31:43.705Z,23.6
2022-12-27T01:32:46.226Z,23.7
2022-12-27T01:33:48.463Z,23.7
2022-12-27T01:34:51.063Z,23.5
2022-12-27T01:35:53.324Z,23.7
2022-12-27T01:36:55.568Z,23.7
2022-12-27T01:37:58.076Z,23.4
2022-12-27T01:39:00.668Z,23.7
2022-12-27T01:40:02.919Z,23.5
2022-12-27T01:41:05.462Z,23.6
2022-12-27T01:42:07.677Z,23.5
2022-12-27T01:43:10.177Z,23.5
2022-12-27T01:44:12.387Z,23.5
2022-12-27T01:45:14.916Z,23.6
2022-12-27T01:46:17.589Z,23.5
2022-12-27T01:47:20.310Z,23.6
2022-12-27T01:48:22.528Z,23.6
2022-12-27T01:49:25.046Z,23.5
2022-12-27T01:50:27.548Z,23.7
2022-12-27T01:51:29.485Z,23.6
2022-12-27T01:52:34.860Z,23.7
2022-12-27T01:53:36.982Z,23.7
2022-12-27T01:54:39.494Z,23.6
2022-12-27T01:55:42.018Z,23.7
2022-12-27T01:56:44.561Z,23.8
2022-12-27T01:57:46.792Z,23.8
2022-12-27T01:58:48.995Z,23.6
2022-12-27T01:59:51.527Z,23.7
2022-12-27T02:00:54.108Z,23.8
2022-12-27T02:01:57.348Z,23.7
2022-12-27T02:03:01.228Z,23.6
2022-12-27T02:04:04.030Z,23.7
2022-12-27T02:05:06.283Z,23.4
2022-12-27T02:06:08.791Z,23.5
2022-12-27T02:07:10.983Z,23.8
2022-12-27T02:08:13.517Z,23.5
2022-12-27T02:09:15.788Z,23.5
2022-12-27T02:10:18.341Z,23.6
2022-12-27T02:11:20.880Z,23.7
2022-12-27T02:12:23.382Z,23.7
2022-12-27T02:13:25.649Z,23.6
2022-12-27T02:14:28.539Z,23.7
2022-12-27T02:15:30.874Z,23.6
2022-12-27T02:16:33.176Z,23.7
2022-12-27T02:17:35.945Z,23.7
2022-12-27T02:18:38.451Z,23.7
2022-12-27T02:19:40.958Z,23.7
2022-12-27T02:20:43.469Z,23.6
2022-12-27T02:21:45.961Z,23.7
2022-12-27T02:22:48.461Z,23.7
2022-12-27T02:23:50.978Z,23.8
2022-12-27T02:24:53.792Z,23.8
2022-12-27T02:25:56.858Z,23.8
2022-12-27T02:26:59.342Z,23.6
2022-12-27T02:28:01.597Z,23.7
2022-12-27T02:29:04.097Z,23.7
2022-12-27T02:30:06.355Z,23.6
2022-12-27T02:31:08.915Z,23.7
2022-12-27T02:32:11.672Z,23.6
2022-12-27T02:33:14.466Z,23.6
2022-12-27T02:34:16.693Z,23.7
2022-12-27T02:35:18.943Z,23.6
2022-12-27T02:36:21.174Z,23.6
2022-12-27T02:37:23.151Z,23.7
2022-12-27T02:38:25.671Z,23.6
2022-12-27T02:39:27.872Z,23.8
2022-12-27T02:40:30.129Z,23.7
2022-12-27T02:41:32.649Z,23.7
2022-12-27T02:42:34.631Z,23.7
2022-12-27T02:43:37.203Z,23.7
2022-12-27T02:44:39.735Z,23.8
2022-12-27T02:45:42.022Z,23.8
2022-12-27T02:46:44.779Z,23.9
2022-12-27T02:47:47.296Z,23.9
2022-12-27T02:48:49.938Z,23.7
2022-12-27T02:49:52.447Z,23.7
2022-12-27T02:50:55.006Z,23.8
2022-12-27T02:51:57.521Z,23.8
2022-12-27T02:52:59.745Z,23.7
2022-12-27T02:54:02.288Z,23.6
2022-12-27T02:55:04.531Z,23.9
2022-12-27T02:56:07.088Z,23.7
2022-12-27T02:57:09.631Z,23.7
2022-12-27T02:58:11.998Z,23.7
2022-12-27T02:59:14.272Z,23.8
2022-12-27T03:00:16.522Z,23.7
2022-12-27T03:01:19.127Z,23.6
2022-12-27T03:02:22.275Z,23.7
2022-12-27T03:03:25.942Z,23.9
2022-12-27T03:04:28.413Z,23.7
2022-12-27T03:05:30.929Z,23.7
2022-12-27T03:06:33.465Z,23.6
2022-12-27T03:07:35.800Z,23.7
2022-12-27T03:08:38.314Z,23.8
2022-12-27T03:09:40.555Z,23.8
2022-12-27T03:10:43.075Z,23.8
2022-12-27T03:11:45.616Z,23.8
2022-12-27T03:12:48.138Z,23.9
2022-12-27T03:13:50.686Z,23.9
2022-12-27T03:14:52.935Z,23.9
2022-12-27T03:15:55.631Z,23.9
2022-12-27T03:16:58.815Z,23.8
2022-12-27T03:18:01.051Z,23.8
2022-12-27T03:19:03.546Z,23.8
2022-12-27T03:20:06.312Z,23.9
2022-12-27T03:21:08.565Z,23.9
2022-12-27T03:22:11.108Z,23.9
2022-12-27T03:23:13.625Z,23.8
2022-12-27T03:24:15.854Z,23.8
2022-12-27T03:25:18.064Z,23.9
2022-12-27T03:26:20.587Z,23.7
2022-12-27T03:27:22.546Z,23.7
2022-12-27T03:28:25.059Z,23.7
2022-12-27T03:29:27.564Z,23.8
2022-12-27T03:30:29.823Z,23.9
2022-12-27T03:31:31.520Z,23.7
2022-12-27T03:32:33.998Z,23.8
2022-12-27T03:33:36.282Z,23.8
2022-12-27T03:34:38.784Z,23.8
2022-12-27T03:35:41.434Z,23.8
2022-12-27T03:36:43.649Z,23.8
2022-12-27T03:37:46.149Z,23.8
2022-12-27T03:38:48.095Z,23.9
2022-12-27T03:39:50.605Z,23.9
2022-12-27T03:40:53.115Z,23.8
2022-12-27T03:41:55.388Z,23.9
2022-12-27T03:42:57.888Z,23.8
2022-12-27T03:44:00.133Z,23.8
2022-12-27T03:45:03.670Z,23.8
2022-12-27T03:46:06.293Z,23.6
2022-12-27T03:47:09.072Z,23.8
2022-12-27T03:48:11.767Z,23.7
2022-12-27T03:49:14.359Z,23.8
2022-12-27T03:50:16.940Z,23.7
2022-12-27T03:51:19.643Z,23.8
2022-12-27T03:52:22.535Z,23.8
2022-12-27T03:53:25.062Z,23.8
2022-12-27T03:54:27.571Z,23.8
2022-12-27T03:55:33.252Z,23.8
2022-12-27T03:56:34.191Z,23.7
2022-12-27T03:57:36.766Z,23.8
2022-12-27T03:58:39.006Z,23.9
2022-12-27T03:59:41.263Z,23.8
2022-12-27T04:00:43.527Z,23.9
2022-12-27T04:01:46.121Z,23.7
2022-12-27T04:02:49.267Z,23.8
2022-12-27T04:03:52.857Z,23.8
2022-12-27T04:04:55.091Z,23.8
2022-12-27T04:05:57.594Z,23.8
2022-12-27T04:07:00.270Z,23.8
2022-12-27T04:08:02.539Z,23.8
2022-12-27T04:09:04.457Z,23.7
2022-12-27T04:10:06.961Z,23.8
2022-12-27T04:11:09.195Z,23.8
2022-12-27T04:12:11.437Z,23.8
2022-12-27T04:13:13.951Z,23.8
2022-12-27T04:14:16.461Z,23.7
2022-12-27T04:15:18.691Z,23.8
2022-12-27T04:16:21.363Z,23.8
2022-12-27T04:17:24.201Z,23.7
2022-12-27T04:18:26.734Z,23.7
2022-12-27T04:19:29.291Z,23.7
2022-12-27T04:20:31.820Z,23.5
2022-12-27T04:21:34.405Z,23.7
2022-12-27T04:22:37.035Z,23.7
2022-12-27T04:23:39.266Z,23.6
2022-12-27T04:24:41.789Z,23.7
2022-12-27T04:25:44.195Z,23.5
2022-12-27T04:26:46.710Z,23.7
2022-12-27T04:27:49.214Z,23.6
2022-12-27T04:28:51.749Z,23.6
2022-12-27T04:29:54.063Z,23.5
2022-12-27T04:30:56.616Z,23.6
2022-12-27T04:31:59.046Z,23.5
2022-12-27T04:33:01.289Z,23.6
2022-12-27T04:34:03.793Z,23.6
2022-12-27T04:35:05.745Z,23.6
2022-12-27T04:36:08.282Z,23.5
2022-12-27T04:37:10.813Z,23.5
2022-12-27T04:38:13.687Z,23.5
2022-12-27T04:39:16.250Z,23.5
2022-12-27T04:40:19.752Z,23.6
2022-12-27T04:41:22.300Z,23.5
2022-12-27T04:42:24.527Z,23.3
2022-12-27T04:43:27.082Z,23.4
2022-12-27T04:44:29.015Z,23.3
2022-12-27T04:45:31.541Z,23.5
2022-12-27T04:46:33.602Z,23.4
2022-12-27T04:47:35.843Z,23.4
2022-12-27T04:48:38.334Z,23.5
2022-12-27T04:49:40.732Z,23.6
2022-12-27T04:50:43.688Z,23.5
2022-12-27T04:51:46.038Z,23.4
2022-12-27T04:52:48.545Z,23.5
2022-12-27T04:53:51.321Z,23.3
2022-12-27T04:54:53.870Z,23.4
2022-12-27T04:55:56.103Z,23.6
2022-12-27T04:56:58.682Z,23.5
2022-12-27T04:58:01.201Z,23.5
2022-12-27T04:59:03.488Z,23.5
2022-12-27T05:00:06.049Z,23.5
2022-12-27T05:01:13.934Z,23.3
2022-12-27T05:02:13.673Z,23.4
2022-12-27T05:03:16.650Z,23.5
2022-12-27T05:04:19.549Z,23.5
2022-12-27T05:05:21.575Z,23.4
2022-12-27T05:06:24.100Z,23.3
2022-12-27T05:07:26.631Z,23.4
2022-12-27T05:08:29.129Z,23.5
2022-12-27T05:09:31.813Z,23.4
2022-12-27T05:10:34.358Z,23.3
2022-12-27T05:11:36.899Z,23.4
2022-12-27T05:12:39.403Z,23.3
2022-12-27T05:13:41.620Z,23.4
2022-12-27T05:14:43.880Z,23.4
2022-12-27T05:15:46.407Z,23.3
2022-12-27T05:16:48.889Z,23.3
2022-12-27T05:17:51.376Z,23.3
2022-12-27T05:18:53.648Z,23.4
2022-12-27T05:19:55.945Z,23.4
2022-12-27T05:20:58.585Z,23.3
2022-12-27T05:22:00.828Z,23.4
2022-12-27T05:23:04.591Z,23.2
2022-12-27T05:24:07.091Z,23.3
2022-12-27T05:25:09.722Z,23.3
2022-12-27T05:26:12.323Z,23.4
2022-12-27T05:27:14.851Z,23.2
2022-12-27T05:28:17.399Z,23.4
2022-12-27T05:29:19.919Z,23.4
2022-12-27T05:30:22.432Z,23.5
2022-12-27T05:31:24.743Z,23.2
2022-12-27T05:32:27.555Z,23.3
2022-12-27T05:33:29.785Z,23.3
2022-12-27T05:34:32.325Z,23.3
2022-12-27T05:35:34.569Z,23.4
2022-12-27T05:36:37.177Z,23.5
2022-12-27T05:37:39.678Z,23.2
2022-12-27T05:38:42.177Z,23.3
2022-12-27T05:39:44.715Z,23.3
2022-12-27T05:40:47.402Z,23.3
2022-12-27T05:41:49.913Z,23.4
2022-12-27T05:42:52.421Z,23.2
2022-12-27T05:43:54.639Z,23.3
2022-12-27T05:44:56.893Z,23.5
2022-12-27T05:46:00.118Z,23.3
2022-12-27T05:47:02.645Z,23.2
2022-12-27T05:48:04.937Z,23.3
2022-12-27T05:49:07.579Z,23.3
2022-12-27T05:50:09.548Z,23.3
2022-12-27T05:51:12.108Z,23.3
2022-12-27T05:52:14.650Z,23.2
2022-12-27T05:53:17.165Z,23.2
2022-12-27T05:54:19.678Z,23.2
2022-12-27T05:55:21.604Z,23.3
2022-12-27T05:56:24.243Z,23.2
2022-12-27T05:57:26.477Z,23.3
2022-12-27T05:58:29.022Z,23.4
2022-12-27T05:59:31.573Z,23.3
2022-12-27T06:00:33.836Z,23.1
2022-12-27T06:01:36.516Z,23.2
2022-12-27T06:02:39.856Z,23.3
2022-12-27T06:03:43.515Z,23.3
2022-12-27T06:04:46.027Z,23.2
2022-12-27T06:05:48.523Z,23.3
2022-12-27T06:06:50.799Z,23.2
2022-12-27T06:07:52.772Z,23.3
2022-12-27T06:08:55.286Z,23.2
2022-12-27T06:09:56.979Z,23.2
2022-12-27T06:10:59.500Z,23.1
2022-12-27T06:12:02.231Z,23.2
2022-12-27T06:13:04.452Z,23.2
2022-12-27T06:14:06.994Z,23.3
2022-12-27T06:15:09.253Z,23.1
2022-12-27T06:16:11.547Z,23.3
2022-12-27T06:17:13.952Z,23.2
2022-12-27T06:18:16.475Z,23.2
2022-12-27T06:19:18.973Z,23.2
2022-12-27T06:20:21.493Z,23.3
2022-12-27T06:21:23.999Z,23.3
2022-12-27T06:22:26.255Z,23.4
2022-12-27T06:23:28.207Z,23.3
2022-12-27T06:24:30.707Z,23.3
2022-12-27T06:25:33.224Z,23.3
2022-12-27T06:26:35.438Z,23.2
2022-12-27T06:27:38.079Z,23.2
2022-12-27T06:28:40.591Z,23.2
2022-12-27T06:29:43.116Z,23.1
2022-12-27T06:30:45.684Z,23.1
2022-12-27T06:31:47.950Z,23.1
2022-12-27T06:32:50.450Z,23.1
2022-12-27T06:33:52.674Z,23.2
2022-12-27T06:34:54.703Z,23.2
2022-12-27T06:35:57.204Z,23.2
2022-12-27T06:36:59.748Z,23.3
2022-12-27T06:38:01.969Z,23.4
2022-12-27T06:39:04.511Z,23.1
2022-12-27T06:40:07.069Z,23.2
2022-12-27T06:41:09.321Z,23.2
2022-12-27T06:42:11.562Z,23.2
2022-12-27T06:43:14.246Z,23.3
2022-12-27T06:44:16.471Z,23.2
2022-12-27T06:45:18.999Z,23.2
2022-12-27T06:46:21.546Z,23.1
2022-12-27T06:47:24.195Z,23.2
2022-12-27T06:48:26.721Z,23.2
2022-12-27T06:49:29.284Z,23.3
2022-12-27T06:50:31.284Z,23.3
2022-12-27T06:51:33.804Z,23.1
2022-12-27T06:52:36.301Z,23.3
2022-12-27T06:53:38.837Z,23.1
2022-12-27T06:54:41.380Z,23.3
2022-12-27T06:55:43.874Z,23.3
2022-12-27T06:56:46.377Z,23.1
2022-12-27T06:57:48.912Z,23.2
2022-12-27T06:58:51.682Z,23.3
2022-12-27T06:59:54.359Z,23.2
2022-12-27T07:00:56.606Z,23.2
2022-12-27T07:01:59.394Z,23.3
2022-12-27T07:03:03.045Z,23.2
2022-12-27T07:04:05.892Z,23.1
2022-12-27T07:05:07.870Z,23.1
2022-12-27T07:06:10.454Z,23.3
2022-12-27T07:07:15.755Z,23.2
2022-12-27T07:08:17.976Z,23.2
2022-12-27T07:09:20.487Z,23.2
2022-12-27T07:10:23.019Z,23.2
2022-12-27T07:11:25.269Z,23.2
2022-12-27T07:12:30.561Z,23.3
2022-12-27T07:13:32.785Z,23.2
2022-12-27T07:14:35.423Z,23.3
2022-12-27T07:15:37.944Z,23.1
2022-12-27T07:16:40.506Z,23.2
2022-12-27T07:17:42.562Z,23.2
2022-12-27T07:18:45.078Z,23.1
2022-12-27T07:19:51.280Z,23.1
2022-12-27T07:20:53.829Z,23.2
2022-12-27T07:21:55.783Z,23.1
2022-12-27T07:22:58.047Z,23.2
2022-12-27T07:24:00.383Z,23.3
2022-12-27T07:25:02.652Z,23.2
2022-12-27T07:26:05.155Z,23.2
2022-12-27T07:27:07.710Z,23.2
2022-12-27T07:28:09.934Z,23.2
2022-12-27T07:29:12.430Z,23.1
2022-12-27T07:30:14.810Z,23.2
2022-12-27T07:31:17.100Z,23
2022-12-27T07:32:20.102Z,23.3
2022-12-27T07:33:22.334Z,23.2
2022-12-27T07:34:24.846Z,23.1
2022-12-27T07:35:27.109Z,23.2
2022-12-27T07:36:29.646Z,23.1
2022-12-27T07:37:31.610Z,23.2
2022-12-27T07:38:34.138Z,23.3
2022-12-27T07:39:36.413Z,23
2022-12-27T07:40:38.918Z,23.2
2022-12-27T07:41:41.426Z,23.1
2022-12-27T07:42:43.403Z,23.1
2022-12-27T07:43:45.913Z,23.1
2022-12-27T07:44:48.500Z,23.1
2022-12-27T07:45:51.192Z,23.2
2022-12-27T07:46:53.619Z,23
2022-12-27T07:47:56.167Z,23.2
2022-12-27T07:48:58.104Z,23.3
2022-12-27T07:50:00.376Z,23.1
2022-12-27T07:51:04.068Z,23.1
2022-12-27T07:52:06.063Z,23.1
2022-12-27T07:53:08.579Z,23.3
2022-12-27T07:54:10.589Z,23.1
2022-12-27T07:55:12.848Z,23.1
2022-12-27T07:56:18.931Z,23.2
2022-12-27T07:57:20.341Z,23.2
2022-12-27T07:58:22.560Z,23.2
2022-12-27T07:59:25.060Z,23.2
2022-12-27T08:00:27.648Z,23.2
2022-12-27T08:01:30.958Z,23
2022-12-27T08:02:33.519Z,23.1
2022-12-27T08:03:36.016Z,23.1
2022-12-27T08:04:38.596Z,23.1
2022-12-27T08:05:41.170Z,23.2
2022-12-27T08:06:43.695Z,23.3
2022-12-27T08:07:45.658Z,23.1
2022-12-27T08:08:47.873Z,23.1
2022-12-27T08:09:50.113Z,23.3
2022-12-27T08:10:52.358Z,23
2022-12-27T08:11:54.582Z,23.2
2022-12-27T08:12:56.856Z,23.1
2022-12-27T08:14:00.130Z,23.3
2022-12-27T08:15:02.707Z,23.2
2022-12-27T08:16:05.032Z,23.2
2022-12-27T08:17:07.891Z,23.3
2022-12-27T08:18:10.778Z,23.2
2022-12-27T08:19:13.322Z,23.1
2022-12-27T08:20:15.566Z,23.1
2022-12-27T08:21:18.132Z,23
2022-12-27T08:22:20.068Z,23.1
2022-12-27T08:23:22.309Z,23.1
2022-12-27T08:24:24.841Z,23
2022-12-27T08:25:27.116Z,23
2022-12-27T08:26:29.685Z,23.1
2022-12-27T08:27:31.902Z,22.9
2022-12-27T08:28:33.880Z,23.2
2022-12-27T08:29:35.830Z,23.2
2022-12-27T08:30:38.434Z,23.2
2022-12-27T08:31:41.356Z,23.2
2022-12-27T08:32:44.075Z,23
2022-12-27T08:33:46.349Z,23.2
2022-12-27T08:34:48.576Z,23.2
2022-12-27T08:35:53.081Z,23.2
2022-12-27T08:36:56.655Z,23.2
2022-12-27T08:37:59.503Z,23.1
2022-12-27T08:39:02.003Z,23.2
2022-12-27T08:40:04.561Z,23.2
2022-12-27T08:41:07.082Z,23.1
2022-12-27T08:42:09.321Z,23.1
2022-12-27T08:43:11.564Z,23.1
2022-12-27T08:44:14.077Z,22.9
2022-12-27T08:45:16.337Z,23.2
2022-12-27T08:46:18.593Z,23.3
2022-12-27T08:47:22.539Z,23.2
2022-12-27T08:48:25.361Z,23.1
2022-12-27T08:49:28.014Z,23.1
2022-12-27T08:50:30.526Z,23.1
2022-12-27T08:51:40.294Z,23.1
2022-12-27T08:52:37.728Z,23.2
2022-12-27T08:53:40.232Z,23.1
2022-12-27T08:54:42.828Z,23.1
2022-12-27T08:55:45.342Z,23
2022-12-27T08:56:47.274Z,23.1
2022-12-27T08:57:49.239Z,23
2022-12-27T08:58:51.740Z,23.2
2022-12-27T08:59:54.299Z,23.2
2022-12-27T09:00:56.545Z,23.1
2022-12-27T09:01:59.230Z,23.2
2022-12-27T09:03:02.151Z,23.2
2022-12-27T09:04:04.988Z,23.4
2022-12-27T09:05:07.292Z,23.2
2022-12-27T09:06:09.872Z,23.2
2022-12-27T09:07:12.129Z,23.1
2022-12-27T09:08:14.693Z,23.2
2022-12-27T09:09:16.953Z,23.1
2022-12-27T09:10:19.459Z,23.2
2022-12-27T09:11:22.008Z,23.1
2022-12-27T09:12:24.300Z,23.2
2022-12-27T09:13:26.813Z,23.2
2022-12-27T09:14:29.059Z,23.1
2022-12-27T09:15:31.382Z,23.3
2022-12-27T09:16:34.149Z,23.1
2022-12-27T09:17:36.539Z,23
2022-12-27T09:18:38.780Z,23.2
2022-12-27T09:19:41.616Z,23.3
2022-12-27T09:20:43.868Z,23.2
2022-12-27T09:21:45.863Z,23.1
2022-12-27T09:22:48.384Z,23
2022-12-27T09:23:50.365Z,23.1
2022-12-27T09:24:52.594Z,23.2
2022-12-27T09:25:55.131Z,23.1
2022-12-27T09:26:57.657Z,23.1
2022-12-27T09:28:00.161Z,23.2
2022-12-27T09:29:02.694Z,23.2
2022-12-27T09:30:05.285Z,23.2
2022-12-27T09:31:07.555Z,23.4
2022-12-27T09:32:10.330Z,23.2
2022-12-27T09:33:12.858Z,23.3
2022-12-27T09:34:15.107Z,23
2022-12-27T09:35:17.838Z,23.3
2022-12-27T09:36:20.346Z,23.1
2022-12-27T09:37:22.858Z,23.1
2022-12-27T09:38:25.380Z,23.4
2022-12-27T09:39:27.605Z,23.2
2022-12-27T09:40:30.147Z,23.3
2022-12-27T09:42:25.869Z,23.2
2022-12-27T09:43:02.891Z,23.2
2022-12-27T09:43:42.358Z,23.2
2022-12-27T09:44:44.866Z,23.2
2022-12-27T09:45:47.383Z,23.1
2022-12-27T09:46:49.923Z,23.2
2022-12-27T09:47:52.183Z,23
2022-12-27T09:48:54.156Z,23.2
2022-12-27T09:49:56.696Z,23.2
2022-12-27T09:50:59.334Z,23.2
2022-12-27T09:52:01.298Z,23.2
2022-12-27T09:53:03.558Z,23.2
2022-12-27T09:54:06.066Z,23.1
2022-12-27T09:55:08.579Z,23.2
2022-12-27T09:56:11.134Z,23.3
2022-12-27T09:57:20.866Z,23.2
2022-12-27T09:58:18.347Z,23.3
2022-12-27T09:59:20.873Z,23.2
2022-12-27T10:00:29.701Z,23.1
2022-12-27T10:01:28.492Z,23.2
2022-12-27T10:02:31.881Z,23.1
2022-12-27T10:03:35.138Z,23.2
2022-12-27T10:05:01.174Z,23.2
2022-12-27T10:05:42.431Z,23.2
2022-12-27T10:06:45.338Z,23.2
2022-12-27T10:07:47.854Z,23.2
2022-12-27T10:08:50.405Z,23.2
2022-12-27T10:09:52.673Z,23.1
2022-12-27T10:10:55.214Z,23.2
2022-12-27T10:11:57.476Z,23.2
2022-12-27T10:13:00.533Z,23.2
2022-12-27T10:14:02.821Z,23.2
2022-12-27T10:15:05.358Z,23.2
2022-12-27T10:16:07.635Z,23.1
2022-12-27T10:17:10.425Z,23.3
2022-12-27T10:18:12.729Z,23.2
2022-12-27T10:19:15.227Z,23.2
2022-12-27T10:20:17.450Z,23.2
2022-12-27T10:21:20.022Z,23.2
2022-12-27T10:22:22.694Z,23.2
2022-12-27T10:23:24.909Z,23.2
2022-12-27T10:24:27.145Z,23.1
2022-12-27T10:25:29.399Z,23.3
2022-12-27T10:26:31.607Z,23
2022-12-27T10:27:33.878Z,23.2
2022-12-27T10:28:36.449Z,23.2
2022-12-27T10:29:38.999Z,23.3
2022-12-27T10:30:41.502Z,23.1
2022-12-27T10:31:43.853Z,23.3
2022-12-27T10:32:45.802Z,23.2
2022-12-27T10:33:48.062Z,23.2
2022-12-27T10:34:49.751Z,23.1
2022-12-27T10:35:51.982Z,23.1
2022-12-27T10:36:54.497Z,23.3
2022-12-27T10:37:56.872Z,23.2
2022-12-27T10:38:59.402Z,23.3
2022-12-27T10:40:01.928Z,23.3
2022-12-27T10:41:04.161Z,23.1
2022-12-27T10:42:06.844Z,23.3
2022-12-27T10:43:09.077Z,23.2
2022-12-27T10:44:11.335Z,23.2
2022-12-27T10:45:13.869Z,23.1
2022-12-27T10:46:16.405Z,23.2
2022-12-27T10:47:19.130Z,23.2
2022-12-27T10:48:21.366Z,23.3
2022-12-27T10:49:23.612Z,23.1
2022-12-27T10:50:26.245Z,23.2
2022-12-27T10:51:28.176Z,23.1
2022-12-27T10:52:30.424Z,23.2
2022-12-27T10:53:33.109Z,23.1
2022-12-27T10:54:35.405Z,23.2
2022-12-27T10:55:37.682Z,23.1
2022-12-27T10:56:40.179Z,23.2
2022-12-27T10:57:42.741Z,23.2
2022-12-27T10:58:45.235Z,23.1
2022-12-27T10:59:52.182Z,23.2
2022-12-27T11:00:54.740Z,23.2
2022-12-27T11:01:57.662Z,23.1
2022-12-27T11:03:01.273Z,23.2
2022-12-27T11:04:03.626Z,23.3
2022-12-27T11:05:06.163Z,23.2
2022-12-27T11:06:08.388Z,23.2
2022-12-27T11:07:10.882Z,23
2022-12-27T11:08:13.185Z,23
2022-12-27T11:09:15.828Z,23.1
2022-12-27T11:10:18.328Z,23
2022-12-27T11:11:20.292Z,23.1
2022-12-27T11:12:22.859Z,23.2
2022-12-27T11:13:25.104Z,23.1
2022-12-27T11:14:27.979Z,23.1
2022-12-27T11:15:29.956Z,23.2
2022-12-27T11:16:32.265Z,23
2022-12-27T11:17:34.809Z,23.1
2022-12-27T11:18:37.336Z,23.2
2022-12-27T11:19:39.586Z,23.2
2022-12-27T11:20:42.135Z,23.1
2022-12-27T11:21:44.647Z,23.2
2022-12-27T11:22:46.870Z,23.2
2022-12-27T11:23:49.142Z,23.1
2022-12-27T11:24:51.773Z,23
2022-12-27T11:25:54.292Z,23.1
2022-12-27T11:26:56.237Z,23.2
2022-12-27T11:27:58.783Z,23.2
2022-12-27T11:29:01.293Z,23.2
2022-12-27T11:30:03.829Z,23.2
2022-12-27T11:31:05.843Z,23.1
2022-12-27T11:32:08.408Z,23.2
2022-12-27T11:33:10.670Z,23.2
2022-12-27T11:34:13.160Z,23.2
2022-12-27T11:35:15.453Z,23.2
2022-12-27T11:36:17.972Z,23.2
2022-12-27T11:37:20.480Z,23.2
2022-12-27T11:38:22.989Z,23.2
2022-12-27T11:39:25.563Z,23.4
2022-12-27T11:40:28.328Z,23.1
2022-12-27T11:41:29.986Z,23.2
2022-12-27T11:42:32.264Z,23.2
2022-12-27T11:43:34.804Z,23.2
2022-12-27T11:44:36.782Z,23.1
2022-12-27T11:45:39.271Z,23.2
2022-12-27T11:46:41.579Z,23.2
2022-12-27T11:47:44.055Z,23.2
2022-12-27T11:48:46.318Z,23.2
2022-12-27T11:49:48.943Z,23.2
2022-12-27T11:50:51.452Z,23.3
2022-12-27T11:51:53.704Z,23.2
2022-12-27T11:52:56.203Z,23.2
2022-12-27T11:53:58.714Z,23.1
2022-12-27T11:55:00.961Z,23.1
2022-12-27T11:56:03.596Z,23.1
2022-12-27T11:57:05.822Z,23.3
2022-12-27T11:58:08.083Z,23.2
2022-12-27T11:59:10.316Z,23.1
2022-12-27T12:00:12.554Z,23.2
2022-12-27T12:01:15.341Z,23.3
2022-12-27T12:02:17.855Z,23
2022-12-27T12:03:20.680Z,23.2
2022-12-27T12:04:23.419Z,23.1
2022-12-27T12:05:26.020Z,23.2
2022-12-27T12:06:32.851Z,23.2
2022-12-27T12:07:33.252Z,23.2
2022-12-27T12:08:35.480Z,23.2
2022-12-27T12:09:37.689Z,23.1
2022-12-27T12:10:40.247Z,23
2022-12-27T12:11:42.641Z,23.1
2022-12-27T12:12:49.111Z,23.3
2022-12-27T12:13:51.815Z,23.2
2022-12-27T12:14:54.368Z,23.1
2022-12-27T12:15:56.360Z,23.3
2022-12-27T12:16:58.402Z,23.1
2022-12-27T12:18:01.015Z,23.1
2022-12-27T12:19:03.564Z,23.2
2022-12-27T12:20:06.065Z,23.2
2022-12-27T12:21:08.589Z,23.2
2022-12-27T12:22:10.803Z,23.3
2022-12-27T12:23:12.783Z,23.2
2022-12-27T12:24:15.293Z,23.2
2022-12-27T12:25:16.994Z,23.3
2022-12-27T12:26:19.541Z,23.2
2022-12-27T12:27:22.307Z,23.2
2022-12-27T12:28:56.106Z,23.2
2022-12-27T12:29:29.552Z,23.3
2022-12-27T12:30:32.067Z,23.1
2022-12-27T12:31:34.349Z,23.2
2022-12-27T12:32:37.234Z,23.2
2022-12-27T12:33:39.469Z,23.3
2022-12-27T12:34:41.991Z,23.3
2022-12-27T12:35:44.252Z,23.1
2022-12-27T12:36:52.216Z,23.1
2022-12-27T12:37:51.750Z,23.2
2022-12-27T12:38:54.259Z,23.3
2022-12-27T12:39:56.769Z,23.2
2022-12-27T12:40:59.330Z,23.2
2022-12-27T12:42:01.852Z,23.2
2022-12-27T12:43:04.250Z,23.2
2022-12-27T12:44:06.498Z,23.2
2022-12-27T12:45:08.746Z,23.2
2022-12-27T12:46:11.334Z,23.1
2022-12-27T12:47:13.954Z,23.1
2022-12-27T12:48:15.617Z,23.3
2022-12-27T12:49:18.126Z,23.1
2022-12-27T12:50:20.660Z,23.2
2022-12-27T12:51:22.992Z,23.3
2022-12-27T12:52:25.530Z,23.1
2022-12-27T12:53:28.035Z,23.1
2022-12-27T12:54:30.557Z,23
2022-12-27T12:55:38.246Z,23.2
2022-12-27T12:56:37.773Z,23.2
2022-12-27T12:57:40.358Z,23.1
2022-12-27T12:58:43.033Z,23.2
2022-12-27T12:59:45.321Z,23.1
2022-12-27T13:00:47.611Z,23.1
2022-12-27T13:01:51.021Z,23.1
2022-12-27T13:02:54.345Z,23.2
2022-12-27T13:03:57.266Z,23.1
2022-12-27T13:05:00.425Z,23.2
2022-12-27T13:06:02.668Z,23.1
2022-12-27T13:07:04.897Z,23.2
2022-12-27T13:08:07.418Z,23.2
2022-12-27T13:09:09.658Z,23.2
2022-12-27T13:10:12.177Z,23.2
2022-12-27T13:11:13.858Z,23
2022-12-27T13:12:16.383Z,23.1
2022-12-27T13:13:18.916Z,23.1
2022-12-27T13:14:21.566Z,23.1
2022-12-27T13:15:24.087Z,22.9
2022-12-27T13:16:26.706Z,23.1
2022-12-27T13:17:29.663Z,23.1
2022-12-27T13:18:32.168Z,23.2
2022-12-27T13:19:34.406Z,23.1
2022-12-27T13:20:36.925Z,23.1
2022-12-27T13:21:39.415Z,23.1
2022-12-27T13:22:41.940Z,23
2022-12-27T13:23:44.161Z,23
2022-12-27T13:24:46.127Z,23
2022-12-27T13:25:48.405Z,23
2022-12-27T13:26:50.087Z,23
2022-12-27T13:27:52.335Z,23.1
2022-12-27T13:28:54.645Z,23.1
2022-12-27T13:30:00.403Z,23.2
2022-12-27T13:31:02.308Z,23.1
2022-12-27T13:32:05.157Z,23.1
2022-12-27T13:33:07.426Z,23.3
2022-12-27T13:34:09.678Z,23
2022-12-27T13:35:16.262Z,23.1
2022-12-27T13:36:17.195Z,23.2
2022-12-27T13:37:19.757Z,23.2
2022-12-27T13:38:22.026Z,23.1
2022-12-27T13:39:24.556Z,23
2022-12-27T13:40:26.501Z,22.9
2022-12-27T13:41:30.858Z,23.2
2022-12-27T13:42:33.584Z,23
2022-12-27T13:43:36.103Z,23
2022-12-27T13:44:38.348Z,23
2022-12-27T13:45:41.066Z,23
2022-12-27T13:46:43.943Z,23.2
2022-12-27T13:47:46.875Z,23.1
2022-12-27T13:48:49.384Z,23.1
2022-12-27T13:49:51.897Z,23
2022-12-27T13:50:54.431Z,23
2022-12-27T13:51:56.676Z,23.1
2022-12-27T13:53:00.249Z,23.2
2022-12-27T13:54:02.741Z,23.1
2022-12-27T13:55:05.255Z,23